sensor_id;sensor_type;location;lat;lon;timestamp;temperature;humidity
9847;DHT22;68671;50.084;8.794;2023-10-08T00:02:09;21.30;99.90
9847;DHT22;68671;50.084;8.794;2023-10-08T00:04:36;21.30;99.90
9847;DHT22;68671;50.084;8.794;2023-10-08T00:07:03;21.30;99.90
9847;DHT22;68671;50.084;8.794;2023-10-08T00:09:33;21.30;99.90
9847;DHT22;68671;50.084;8.794;2023-10-08T00:12:04;21.30;99.90
9847;DHT22;68671;50.084;8.794;2023-10-08T00:14:31;21.30;99.90
9847;DHT22;68671;50.084;8.794;2023-10-08T00:16:58;21.20;99.90
9847;DHT22;68671;50.084;8.794;2023-10-08T00:19:25;21.20;99.90
9847;DHT22;68671;50.084;8.794;2023-10-08T00:21:59;21.20;99.90
9847;DHT22;68671;50.084;8.794;2023-10-08T00:24:31;21.10;99.90
9847;DHT22;68671;50.084;8.794;2023-10-08T00:26:59;21.20;99.90
9847;DHT22;68671;50.084;8.794;2023-10-08T00:29:27;21.20;99.90
9847;DHT22;68671;50.084;8.794;2023-10-08T00:31:57;21.20;99.90
9847;DHT22;68671;50.084;8.794;2023-10-08T00:34:24;21.30;99.90
9847;DHT22;68671;50.084;8.794;2023-10-08T00:36:52;21.20;99.90
9847;DHT22;68671;50.084;8.794;2023-10-08T00:39:20;21.20;99.90
9847;DHT22;68671;50.084;8.794;2023-10-08T00:41:50;21.20;99.90
9847;DHT22;68671;50.084;8.794;2023-10-08T00:44:20;21.20;99.90
9847;DHT22;68671;50.084;8.794;2023-10-08T00:46:50;21.20;99.90
9847;DHT22;68671;50.084;8.794;2023-10-08T00:49:21;21.20;99.90
9847;DHT22;68671;50.084;8.794;2023-10-08T00:52:00;21.10;99.90
9847;DHT22;68671;50.084;8.794;2023-10-08T00:54:50;21.10;99.90
9847;DHT22;68671;50.084;8.794;2023-10-08T00:57:31;21.20;99.90
9847;DHT22;68671;50.084;8.794;2023-10-08T01:00:02;21.10;99.90
9847;DHT22;68671;50.084;8.794;2023-10-08T01:02:33;21.10;99.90
9847;DHT22;68671;50.084;8.794;2023-10-08T01:05:12;21.10;99.90
9847;DHT22;68671;50.084;8.794;2023-10-08T01:07:42;21.10;99.90
9847;DHT22;68671;50.084;8.794;2023-10-08T01:10:11;21.10;99.90
9847;DHT22;68671;50.084;8.794;2023-10-08T01:12:39;21.00;99.90
9847;DHT22;68671;50.084;8.794;2023-10-08T01:15:15;21.00;99.90
9847;DHT22;68671;50.084;8.794;2023-10-08T01:17:50;21.00;99.90
9847;DHT22;68671;50.084;8.794;2023-10-08T01:20:20;21.10;99.90
9847;DHT22;68671;50.084;8.794;2023-10-08T01:23:00;21.00;99.90
9847;DHT22;68671;50.084;8.794;2023-10-08T01:25:29;21.00;99.90
9847;DHT22;68671;50.084;8.794;2023-10-08T01:27:56;21.00;99.90
9847;DHT22;68671;50.084;8.794;2023-10-08T01:30:26;20.90;99.90
9847;DHT22;68671;50.084;8.794;2023-10-08T01:32:59;20.90;99.90
9847;DHT22;68671;50.084;8.794;2023-10-08T01:35:28;20.90;99.90
9847;DHT22;68671;50.084;8.794;2023-10-08T01:37:57;21.00;99.90
9847;DHT22;68671;50.084;8.794;2023-10-08T01:40:27;20.90;99.90
9847;DHT22;68671;50.084;8.794;2023-10-08T01:42:55;20.90;99.90
9847;DHT22;68671;50.084;8.794;2023-10-08T01:45:25;20.90;99.90
9847;DHT22;68671;50.084;8.794;2023-10-08T01:47:52;20.90;99.90
9847;DHT22;68671;50.084;8.794;2023-10-08T01:50:20;21.00;99.90
9847;DHT22;68671;50.084;8.794;2023-10-08T01:52:48;21.00;99.90
9847;DHT22;68671;50.084;8.794;2023-10-08T01:55:15;21.00;99.90
9847;DHT22;68671;50.084;8.794;2023-10-08T01:57:47;21.00;99.90
9847;DHT22;68671;50.084;8.794;2023-10-08T02:00:14;21.00;99.90
9847;DHT22;68671;50.084;8.794;2023-10-08T02:02:45;21.00;99.90
9847;DHT22;68671;50.084;8.794;2023-10-08T02:05:12;21.00;99.90
9847;DHT22;68671;50.084;8.794;2023-10-08T02:07:41;21.00;99.90
9847;DHT22;68671;50.084;8.794;2023-10-08T02:10:10;21.00;99.90
9847;DHT22;68671;50.084;8.794;2023-10-08T02:12:37;21.00;99.90
9847;DHT22;68671;50.084;8.794;2023-10-08T02:15:06;21.00;99.90
9847;DHT22;68671;50.084;8.794;2023-10-08T02:17:33;20.90;99.90
9847;DHT22;68671;50.084;8.794;2023-10-08T02:20:01;20.90;99.90
9847;DHT22;68671;50.084;8.794;2023-10-08T02:22:30;20.90;99.90
9847;DHT22;68671;50.084;8.794;2023-10-08T02:24:58;20.90;99.90
9847;DHT22;68671;50.084;8.794;2023-10-08T02:27:27;20.90;99.90
9847;DHT22;68671;50.084;8.794;2023-10-08T02:29:54;20.90;99.90
9847;DHT22;68671;50.084;8.794;2023-10-08T02:32:23;20.90;99.90
9847;DHT22;68671;50.084;8.794;2023-10-08T02:34:50;20.90;99.90
9847;DHT22;68671;50.084;8.794;2023-10-08T02:37:17;20.90;99.90
9847;DHT22;68671;50.084;8.794;2023-10-08T02:39:45;20.90;99.90
9847;DHT22;68671;50.084;8.794;2023-10-08T02:42:12;20.90;99.90
9847;DHT22;68671;50.084;8.794;2023-10-08T02:44:40;20.90;99.90
9847;DHT22;68671;50.084;8.794;2023-10-08T02:47:08;20.90;99.90
9847;DHT22;68671;50.084;8.794;2023-10-08T02:49:39;20.90;99.90
9847;DHT22;68671;50.084;8.794;2023-10-08T02:52:07;20.80;99.90
9847;DHT22;68671;50.084;8.794;2023-10-08T02:54:35;20.90;99.90
9847;DHT22;68671;50.084;8.794;2023-10-08T02:57:03;20.80;99.90
9847;DHT22;68671;50.084;8.794;2023-10-08T02:59:36;20.90;99.90
9847;DHT22;68671;50.084;8.794;2023-10-08T03:02:06;20.80;99.90
9847;DHT22;68671;50.084;8.794;2023-10-08T03:04:40;20.80;99.90
9847;DHT22;68671;50.084;8.794;2023-10-08T03:07:08;20.80;99.90
9847;DHT22;68671;50.084;8.794;2023-10-08T03:09:37;20.70;99.90
9847;DHT22;68671;50.084;8.794;2023-10-08T03:12:07;20.70;99.90
9847;DHT22;68671;50.084;8.794;2023-10-08T03:14:36;20.70;99.90
9847;DHT22;68671;50.084;8.794;2023-10-08T03:17:14;20.70;99.90
9847;DHT22;68671;50.084;8.794;2023-10-08T03:19:47;20.70;99.90
9847;DHT22;68671;50.084;8.794;2023-10-08T03:22:13;20.60;99.90
9847;DHT22;68671;50.084;8.794;2023-10-08T03:24:44;20.60;99.90
9847;DHT22;68671;50.084;8.794;2023-10-08T03:27:14;20.70;99.90
9847;DHT22;68671;50.084;8.794;2023-10-08T03:29:46;20.60;99.90
9847;DHT22;68671;50.084;8.794;2023-10-08T03:32:14;20.60;99.90
9847;DHT22;68671;50.084;8.794;2023-10-08T03:34:44;20.60;99.90
9847;DHT22;68671;50.084;8.794;2023-10-08T03:37:14;20.70;99.90
9847;DHT22;68671;50.084;8.794;2023-10-08T03:39:47;20.70;99.90
9847;DHT22;68671;50.084;8.794;2023-10-08T03:42:32;20.70;99.90
9847;DHT22;68671;50.084;8.794;2023-10-08T03:45:06;20.70;99.90
9847;DHT22;68671;50.084;8.794;2023-10-08T03:47:38;20.60;99.90
9847;DHT22;68671;50.084;8.794;2023-10-08T03:50:07;20.60;99.90
9847;DHT22;68671;50.084;8.794;2023-10-08T03:52:36;20.60;99.90
9847;DHT22;68671;50.084;8.794;2023-10-08T03:55:05;20.60;99.90
9847;DHT22;68671;50.084;8.794;2023-10-08T03:57:39;20.60;99.90
9847;DHT22;68671;50.084;8.794;2023-10-08T04:00:11;20.60;99.90
9847;DHT22;68671;50.084;8.794;2023-10-08T04:02:43;20.60;99.90
9847;DHT22;68671;50.084;8.794;2023-10-08T04:05:20;20.60;99.90
9847;DHT22;68671;50.084;8.794;2023-10-08T04:07:54;20.60;99.90
9847;DHT22;68671;50.084;8.794;2023-10-08T04:10:42;20.60;99.90
9847;DHT22;68671;50.084;8.794;2023-10-08T04:13:32;20.60;99.90
9847;DHT22;68671;50.084;8.794;2023-10-08T04:15:59;20.60;99.90
9847;DHT22;68671;50.084;8.794;2023-10-08T04:18:30;20.60;99.90
9847;DHT22;68671;50.084;8.794;2023-10-08T04:20:58;20.60;99.90
9847;DHT22;68671;50.084;8.794;2023-10-08T04:23:32;20.60;99.90
9847;DHT22;68671;50.084;8.794;2023-10-08T04:26:03;20.60;99.90
9847;DHT22;68671;50.084;8.794;2023-10-08T04:28:32;20.60;99.90
9847;DHT22;68671;50.084;8.794;2023-10-08T04:31:01;20.60;99.90
9847;DHT22;68671;50.084;8.794;2023-10-08T04:33:41;20.50;99.90
9847;DHT22;68671;50.084;8.794;2023-10-08T04:36:08;20.50;99.90
9847;DHT22;68671;50.084;8.794;2023-10-08T04:38:36;20.50;99.90
9847;DHT22;68671;50.084;8.794;2023-10-08T04:41:06;20.50;99.90
9847;DHT22;68671;50.084;8.794;2023-10-08T04:43:35;20.40;99.90
9847;DHT22;68671;50.084;8.794;2023-10-08T04:46:05;20.40;99.90
9847;DHT22;68671;50.084;8.794;2023-10-08T04:48:44;20.40;99.90
9847;DHT22;68671;50.084;8.794;2023-10-08T04:51:11;20.40;99.90
9847;DHT22;68671;50.084;8.794;2023-10-08T04:53:41;20.40;99.90
9847;DHT22;68671;50.084;8.794;2023-10-08T04:56:10;20.40;99.90
9847;DHT22;68671;50.084;8.794;2023-10-08T04:58:42;20.40;99.90
9847;DHT22;68671;50.084;8.794;2023-10-08T05:01:12;20.40;99.90
9847;DHT22;68671;50.084;8.794;2023-10-08T05:03:54;20.40;99.90
9847;DHT22;68671;50.084;8.794;2023-10-08T05:06:35;20.40;99.90
9847;DHT22;68671;50.084;8.794;2023-10-08T05:09:20;20.30;99.90
9847;DHT22;68671;50.084;8.794;2023-10-08T05:12:04;20.30;99.90
9847;DHT22;68671;50.084;8.794;2023-10-08T05:14:54;20.30;99.90
9847;DHT22;68671;50.084;8.794;2023-10-08T05:17:43;20.30;99.90
9847;DHT22;68671;50.084;8.794;2023-10-08T05:20:23;20.30;99.90
9847;DHT22;68671;50.084;8.794;2023-10-08T05:23:10;20.30;99.90
9847;DHT22;68671;50.084;8.794;2023-10-08T05:25:48;20.30;99.90
9847;DHT22;68671;50.084;8.794;2023-10-08T05:28:35;20.30;99.90
9847;DHT22;68671;50.084;8.794;2023-10-08T05:31:07;20.30;99.90
9847;DHT22;68671;50.084;8.794;2023-10-08T05:33:57;20.30;99.90
9847;DHT22;68671;50.084;8.794;2023-10-08T05:36:39;20.30;99.90
9847;DHT22;68671;50.084;8.794;2023-10-08T05:39:26;20.30;99.90
9847;DHT22;68671;50.084;8.794;2023-10-08T05:41:56;20.30;99.90
9847;DHT22;68671;50.084;8.794;2023-10-08T05:44:39;20.20;99.90
9847;DHT22;68671;50.084;8.794;2023-10-08T05:47:05;20.30;99.90
9847;DHT22;68671;50.084;8.794;2023-10-08T05:49:53;20.20;99.90
9847;DHT22;68671;50.084;8.794;2023-10-08T05:52:54;20.20;99.90
9847;DHT22;68671;50.084;8.794;2023-10-08T05:55:40;20.30;99.90
9847;DHT22;68671;50.084;8.794;2023-10-08T05:58:14;20.20;99.90
9847;DHT22;68671;50.084;8.794;2023-10-08T06:00:50;20.30;99.90
9847;DHT22;68671;50.084;8.794;2023-10-08T06:03:33;20.20;99.90
9847;DHT22;68671;50.084;8.794;2023-10-08T06:06:11;20.20;99.90
9847;DHT22;68671;50.084;8.794;2023-10-08T06:09:03;20.20;99.90
9847;DHT22;68671;50.084;8.794;2023-10-08T06:11:48;20.20;99.90
9847;DHT22;68671;50.084;8.794;2023-10-08T06:14:37;20.20;99.90
9847;DHT22;68671;50.084;8.794;2023-10-08T06:17:32;20.20;99.90
9847;DHT22;68671;50.084;8.794;2023-10-08T06:20:22;20.20;99.90
9847;DHT22;68671;50.084;8.794;2023-10-08T06:22:52;20.30;99.90
9847;DHT22;68671;50.084;8.794;2023-10-08T06:25:26;20.30;99.90
9847;DHT22;68671;50.084;8.794;2023-10-08T06:27:53;20.30;99.90
9847;DHT22;68671;50.084;8.794;2023-10-08T06:30:24;20.30;99.90
9847;DHT22;68671;50.084;8.794;2023-10-08T06:32:55;20.30;99.90
9847;DHT22;68671;50.084;8.794;2023-10-08T06:35:22;20.30;99.90
9847;DHT22;68671;50.084;8.794;2023-10-08T06:37:53;20.30;99.90
9847;DHT22;68671;50.084;8.794;2023-10-08T06:40:24;20.30;99.90
9847;DHT22;68671;50.084;8.794;2023-10-08T06:43:07;20.30;99.90
9847;DHT22;68671;50.084;8.794;2023-10-08T06:45:49;20.30;99.90
9847;DHT22;68671;50.084;8.794;2023-10-08T06:48:19;20.30;99.90
9847;DHT22;68671;50.084;8.794;2023-10-08T06:50:47;20.40;99.90
9847;DHT22;68671;50.084;8.794;2023-10-08T06:53:14;20.40;99.90
9847;DHT22;68671;50.084;8.794;2023-10-08T06:55:44;20.40;99.90
9847;DHT22;68671;50.084;8.794;2023-10-08T06:58:13;20.40;99.90
9847;DHT22;68671;50.084;8.794;2023-10-08T07:00:41;20.40;99.90
9847;DHT22;68671;50.084;8.794;2023-10-08T07:03:16;20.50;99.90
9847;DHT22;68671;50.084;8.794;2023-10-08T07:05:45;20.40;99.90
9847;DHT22;68671;50.084;8.794;2023-10-08T07:08:21;20.40;99.90
9847;DHT22;68671;50.084;8.794;2023-10-08T07:10:49;20.40;99.90
9847;DHT22;68671;50.084;8.794;2023-10-08T07:13:16;20.40;99.90
9847;DHT22;68671;50.084;8.794;2023-10-08T07:15:45;20.40;99.90
9847;DHT22;68671;50.084;8.794;2023-10-08T07:18:12;20.30;99.90
9847;DHT22;68671;50.084;8.794;2023-10-08T07:20:45;20.40;99.90
9847;DHT22;68671;50.084;8.794;2023-10-08T07:23:18;20.30;99.90
9847;DHT22;68671;50.084;8.794;2023-10-08T07:25:46;20.40;99.90
9847;DHT22;68671;50.084;8.794;2023-10-08T07:28:19;20.30;99.90
9847;DHT22;68671;50.084;8.794;2023-10-08T07:30:46;20.40;99.90
9847;DHT22;68671;50.084;8.794;2023-10-08T07:33:15;20.30;99.90
9847;DHT22;68671;50.084;8.794;2023-10-08T07:35:46;20.20;99.90
9847;DHT22;68671;50.084;8.794;2023-10-08T07:38:25;20.20;99.90
9847;DHT22;68671;50.084;8.794;2023-10-08T07:40:52;20.20;99.90
9847;DHT22;68671;50.084;8.794;2023-10-08T07:43:20;20.30;99.90
9847;DHT22;68671;50.084;8.794;2023-10-08T07:45:48;20.20;99.90
9847;DHT22;68671;50.084;8.794;2023-10-08T07:48:14;20.20;99.90
9847;DHT22;68671;50.084;8.794;2023-10-08T07:50:44;20.30;99.90
9847;DHT22;68671;50.084;8.794;2023-10-08T07:53:13;20.20;99.90
9847;DHT22;68671;50.084;8.794;2023-10-08T07:55:45;20.30;99.90
9847;DHT22;68671;50.084;8.794;2023-10-08T07:58:14;20.30;99.90
9847;DHT22;68671;50.084;8.794;2023-10-08T08:00:41;20.30;99.90
9847;DHT22;68671;50.084;8.794;2023-10-08T08:03:18;20.40;99.90
9847;DHT22;68671;50.084;8.794;2023-10-08T08:05:45;20.40;99.90
9847;DHT22;68671;50.084;8.794;2023-10-08T08:08:13;20.40;99.90
9847;DHT22;68671;50.084;8.794;2023-10-08T08:10:44;20.40;99.90
9847;DHT22;68671;50.084;8.794;2023-10-08T08:13:11;20.30;99.90
9847;DHT22;68671;50.084;8.794;2023-10-08T08:15:39;20.20;99.90
9847;DHT22;68671;50.084;8.794;2023-10-08T08:18:09;19.90;99.90
9847;DHT22;68671;50.084;8.794;2023-10-08T08:20:46;19.70;99.90
9847;DHT22;68671;50.084;8.794;2023-10-08T08:23:15;19.60;99.90
9847;DHT22;68671;50.084;8.794;2023-10-08T08:25:43;19.40;99.90
9847;DHT22;68671;50.084;8.794;2023-10-08T08:28:22;19.10;99.90
9847;DHT22;68671;50.084;8.794;2023-10-08T08:30:50;18.70;99.90
9847;DHT22;68671;50.084;8.794;2023-10-08T08:33:18;18.50;99.90
9847;DHT22;68671;50.084;8.794;2023-10-08T08:35:57;18.30;99.90
9847;DHT22;68671;50.084;8.794;2023-10-08T08:38:26;18.30;99.90
9847;DHT22;68671;50.084;8.794;2023-10-08T08:41:02;18.30;99.90
9847;DHT22;68671;50.084;8.794;2023-10-08T08:43:33;18.20;99.90
9847;DHT22;68671;50.084;8.794;2023-10-08T08:46:02;18.10;99.90
9847;DHT22;68671;50.084;8.794;2023-10-08T08:48:33;18.00;99.90
9847;DHT22;68671;50.084;8.794;2023-10-08T08:51:00;17.90;99.90
9847;DHT22;68671;50.084;8.794;2023-10-08T08:53:29;17.80;99.90
9847;DHT22;68671;50.084;8.794;2023-10-08T08:55:57;17.80;99.90
9847;DHT22;68671;50.084;8.794;2023-10-08T08:58:25;17.70;99.90
9847;DHT22;68671;50.084;8.794;2023-10-08T09:00:53;17.70;99.90
9847;DHT22;68671;50.084;8.794;2023-10-08T09:03:21;17.60;99.90
9847;DHT22;68671;50.084;8.794;2023-10-08T09:05:56;17.60;99.90
9847;DHT22;68671;50.084;8.794;2023-10-08T09:08:23;17.60;99.90
9847;DHT22;68671;50.084;8.794;2023-10-08T09:10:57;17.60;99.90
9847;DHT22;68671;50.084;8.794;2023-10-08T09:13:27;17.60;99.90
9847;DHT22;68671;50.084;8.794;2023-10-08T09:15:57;17.60;99.90
9847;DHT22;68671;50.084;8.794;2023-10-08T09:18:24;17.60;99.90
9847;DHT22;68671;50.084;8.794;2023-10-08T09:20:52;17.60;99.90
9847;DHT22;68671;50.084;8.794;2023-10-08T09:23:20;17.50;99.90
9847;DHT22;68671;50.084;8.794;2023-10-08T09:25:49;17.50;99.90
9847;DHT22;68671;50.084;8.794;2023-10-08T09:28:18;17.40;99.90
9847;DHT22;68671;50.084;8.794;2023-10-08T09:30:47;17.40;99.90
9847;DHT22;68671;50.084;8.794;2023-10-08T09:33:14;17.40;99.90
9847;DHT22;68671;50.084;8.794;2023-10-08T09:35:43;17.50;99.90
9847;DHT22;68671;50.084;8.794;2023-10-08T09:38:11;17.60;99.90
9847;DHT22;68671;50.084;8.794;2023-10-08T09:40:40;17.60;99.90
9847;DHT22;68671;50.084;8.794;2023-10-08T09:43:08;17.60;99.90
9847;DHT22;68671;50.084;8.794;2023-10-08T09:45:38;17.50;99.90
9847;DHT22;68671;50.084;8.794;2023-10-08T09:48:10;17.50;99.90
9847;DHT22;68671;50.084;8.794;2023-10-08T09:50:40;17.50;99.90
9847;DHT22;68671;50.084;8.794;2023-10-08T09:53:08;17.50;99.90
9847;DHT22;68671;50.084;8.794;2023-10-08T09:55:44;17.40;99.90
9847;DHT22;68671;50.084;8.794;2023-10-08T09:58:15;17.40;99.90
9847;DHT22;68671;50.084;8.794;2023-10-08T10:00:45;17.30;99.90
9847;DHT22;68671;50.084;8.794;2023-10-08T10:03:14;17.30;99.90
9847;DHT22;68671;50.084;8.794;2023-10-08T10:05:44;17.30;99.90
9847;DHT22;68671;50.084;8.794;2023-10-08T10:08:11;17.40;99.90
9847;DHT22;68671;50.084;8.794;2023-10-08T10:10:41;17.40;99.90
9847;DHT22;68671;50.084;8.794;2023-10-08T10:13:16;17.30;99.90
9847;DHT22;68671;50.084;8.794;2023-10-08T10:15:44;17.30;99.90
9847;DHT22;68671;50.084;8.794;2023-10-08T10:18:14;17.40;99.90
9847;DHT22;68671;50.084;8.794;2023-10-08T10:20:45;17.40;99.90
9847;DHT22;68671;50.084;8.794;2023-10-08T10:23:34;17.40;99.90
9847;DHT22;68671;50.084;8.794;2023-10-08T10:26:03;17.30;99.90
9847;DHT22;68671;50.084;8.794;2023-10-08T10:28:37;17.20;99.90
9847;DHT22;68671;50.084;8.794;2023-10-08T10:31:24;17.20;99.90
9847;DHT22;68671;50.084;8.794;2023-10-08T10:33:54;17.10;99.90
9847;DHT22;68671;50.084;8.794;2023-10-08T10:36:21;17.10;99.90
9847;DHT22;68671;50.084;8.794;2023-10-08T10:38:48;17.10;99.90
9847;DHT22;68671;50.084;8.794;2023-10-08T10:41:15;17.10;99.90
9847;DHT22;68671;50.084;8.794;2023-10-08T10:43:43;17.10;99.90
9847;DHT22;68671;50.084;8.794;2023-10-08T10:46:19;17.10;99.90
9847;DHT22;68671;50.084;8.794;2023-10-08T10:48:56;17.00;99.90
9847;DHT22;68671;50.084;8.794;2023-10-08T10:51:33;17.10;99.90
9847;DHT22;68671;50.084;8.794;2023-10-08T10:53:59;17.10;99.90
9847;DHT22;68671;50.084;8.794;2023-10-08T10:56:33;17.10;99.90
9847;DHT22;68671;50.084;8.794;2023-10-08T10:59:06;17.10;99.90
9847;DHT22;68671;50.084;8.794;2023-10-08T11:01:45;17.10;99.90
9847;DHT22;68671;50.084;8.794;2023-10-08T11:04:12;17.20;99.90
9847;DHT22;68671;50.084;8.794;2023-10-08T11:06:42;17.20;99.90
9847;DHT22;68671;50.084;8.794;2023-10-08T11:09:10;17.30;99.90
9847;DHT22;68671;50.084;8.794;2023-10-08T11:11:42;17.40;99.90
9847;DHT22;68671;50.084;8.794;2023-10-08T11:14:11;17.40;99.90
9847;DHT22;68671;50.084;8.794;2023-10-08T11:16:44;17.40;99.90
9847;DHT22;68671;50.084;8.794;2023-10-08T11:19:11;17.50;99.90
9847;DHT22;68671;50.084;8.794;2023-10-08T11:21:50;17.60;99.90
9847;DHT22;68671;50.084;8.794;2023-10-08T11:24:28;17.60;99.90
9847;DHT22;68671;50.084;8.794;2023-10-08T11:26:59;17.70;99.90
9847;DHT22;68671;50.084;8.794;2023-10-08T11:29:42;17.80;99.90
9847;DHT22;68671;50.084;8.794;2023-10-08T11:32:14;17.80;99.90
9847;DHT22;68671;50.084;8.794;2023-10-08T11:34:45;17.90;99.90
9847;DHT22;68671;50.084;8.794;2023-10-08T11:37:25;18.00;99.90
9847;DHT22;68671;50.084;8.794;2023-10-08T11:39:52;18.00;99.90
9847;DHT22;68671;50.084;8.794;2023-10-08T11:42:23;18.10;99.90
9847;DHT22;68671;50.084;8.794;2023-10-08T11:45:10;18.20;99.90
9847;DHT22;68671;50.084;8.794;2023-10-08T11:47:52;18.30;99.90
9847;DHT22;68671;50.084;8.794;2023-10-08T11:50:25;18.30;99.90
9847;DHT22;68671;50.084;8.794;2023-10-08T11:52:59;18.40;99.90
9847;DHT22;68671;50.084;8.794;2023-10-08T11:55:29;18.50;99.90
9847;DHT22;68671;50.084;8.794;2023-10-08T11:58:00;18.60;99.90
9847;DHT22;68671;50.084;8.794;2023-10-08T12:00:27;18.70;99.90
9847;DHT22;68671;50.084;8.794;2023-10-08T12:02:56;18.70;99.90
9847;DHT22;68671;50.084;8.794;2023-10-08T12:05:23;18.80;99.90
9847;DHT22;68671;50.084;8.794;2023-10-08T12:07:51;18.90;99.90
9847;DHT22;68671;50.084;8.794;2023-10-08T12:10:18;18.80;99.90
9847;DHT22;68671;50.084;8.794;2023-10-08T12:12:48;18.90;99.90
9847;DHT22;68671;50.084;8.794;2023-10-08T12:15:15;18.90;99.90
9847;DHT22;68671;50.084;8.794;2023-10-08T12:17:46;18.90;99.90
9847;DHT22;68671;50.084;8.794;2023-10-08T12:20:35;19.00;99.90
9847;DHT22;68671;50.084;8.794;2023-10-08T12:23:04;19.10;99.90
9847;DHT22;68671;50.084;8.794;2023-10-08T12:25:31;19.10;99.90
9847;DHT22;68671;50.084;8.794;2023-10-08T12:28:00;19.10;99.90
9847;DHT22;68671;50.084;8.794;2023-10-08T12:30:30;19.10;99.90
9847;DHT22;68671;50.084;8.794;2023-10-08T12:33:07;19.20;99.90
9847;DHT22;68671;50.084;8.794;2023-10-08T12:35:39;19.20;99.90
9847;DHT22;68671;50.084;8.794;2023-10-08T12:38:06;19.20;99.90
9847;DHT22;68671;50.084;8.794;2023-10-08T12:40:35;19.20;99.90
9847;DHT22;68671;50.084;8.794;2023-10-08T12:43:13;19.20;99.90
9847;DHT22;68671;50.084;8.794;2023-10-08T12:45:45;19.20;99.90
9847;DHT22;68671;50.084;8.794;2023-10-08T12:48:18;19.20;99.90
9847;DHT22;68671;50.084;8.794;2023-10-08T12:50:47;19.30;99.90
9847;DHT22;68671;50.084;8.794;2023-10-08T12:53:20;19.30;99.90
9847;DHT22;68671;50.084;8.794;2023-10-08T12:55:50;19.30;99.90
9847;DHT22;68671;50.084;8.794;2023-10-08T12:58:19;19.20;99.90
9847;DHT22;68671;50.084;8.794;2023-10-08T13:00:51;19.20;99.90
9847;DHT22;68671;50.084;8.794;2023-10-08T13:03:23;19.20;99.90
9847;DHT22;68671;50.084;8.794;2023-10-08T13:05:52;19.20;99.90
9847;DHT22;68671;50.084;8.794;2023-10-08T13:08:19;19.30;99.90
9847;DHT22;68671;50.084;8.794;2023-10-08T13:10:46;19.20;99.90
9847;DHT22;68671;50.084;8.794;2023-10-08T13:13:13;19.20;99.90
9847;DHT22;68671;50.084;8.794;2023-10-08T13:15:40;19.20;99.90
9847;DHT22;68671;50.084;8.794;2023-10-08T13:18:08;19.30;99.90
9847;DHT22;68671;50.084;8.794;2023-10-08T13:20:36;19.30;99.90
9847;DHT22;68671;50.084;8.794;2023-10-08T13:23:10;19.40;99.90
9847;DHT22;68671;50.084;8.794;2023-10-08T13:25:37;19.50;99.90
9847;DHT22;68671;50.084;8.794;2023-10-08T13:28:05;19.50;99.90
9847;DHT22;68671;50.084;8.794;2023-10-08T13:30:37;19.50;99.90
9847;DHT22;68671;50.084;8.794;2023-10-08T13:33:04;19.50;99.90
9847;DHT22;68671;50.084;8.794;2023-10-08T13:35:34;19.60;99.90
9847;DHT22;68671;50.084;8.794;2023-10-08T13:38:03;19.60;99.90
9847;DHT22;68671;50.084;8.794;2023-10-08T13:40:36;19.60;99.90
9847;DHT22;68671;50.084;8.794;2023-10-08T13:43:09;19.70;99.90
9847;DHT22;68671;50.084;8.794;2023-10-08T13:45:37;19.70;99.90
9847;DHT22;68671;50.084;8.794;2023-10-08T13:48:05;19.60;99.90
9847;DHT22;68671;50.084;8.794;2023-10-08T13:50:36;19.60;99.90
9847;DHT22;68671;50.084;8.794;2023-10-08T13:53:03;19.70;99.90
9847;DHT22;68671;50.084;8.794;2023-10-08T13:55:31;19.70;99.90
9847;DHT22;68671;50.084;8.794;2023-10-08T13:57:59;19.70;99.90
9847;DHT22;68671;50.084;8.794;2023-10-08T14:00:27;19.70;99.90
9847;DHT22;68671;50.084;8.794;2023-10-08T14:03:01;19.70;99.90
9847;DHT22;68671;50.084;8.794;2023-10-08T14:05:33;19.60;99.90
9847;DHT22;68671;50.084;8.794;2023-10-08T14:08:00;19.60;99.90
9847;DHT22;68671;50.084;8.794;2023-10-08T14:10:30;19.70;99.90
9847;DHT22;68671;50.084;8.794;2023-10-08T14:12:58;19.70;99.90
9847;DHT22;68671;50.084;8.794;2023-10-08T14:15:27;19.70;99.90
9847;DHT22;68671;50.084;8.794;2023-10-08T14:17:58;19.70;99.90
9847;DHT22;68671;50.084;8.794;2023-10-08T14:20:30;19.60;99.90
9847;DHT22;68671;50.084;8.794;2023-10-08T14:22:58;19.70;99.90
9847;DHT22;68671;50.084;8.794;2023-10-08T14:25:28;19.70;99.90
9847;DHT22;68671;50.084;8.794;2023-10-08T14:28:07;19.70;99.90
9847;DHT22;68671;50.084;8.794;2023-10-08T14:31:05;19.80;99.90
9847;DHT22;68671;50.084;8.794;2023-10-08T14:33:43;19.80;99.90
9847;DHT22;68671;50.084;8.794;2023-10-08T14:36:34;19.90;99.90
9847;DHT22;68671;50.084;8.794;2023-10-08T14:39:51;19.80;99.90
9847;DHT22;68671;50.084;8.794;2023-10-08T14:42:58;19.80;99.90
9847;DHT22;68671;50.084;8.794;2023-10-08T14:45:45;19.70;99.90
9847;DHT22;68671;50.084;8.794;2023-10-08T14:48:18;19.70;99.90
9847;DHT22;68671;50.084;8.794;2023-10-08T14:51:01;19.80;99.90
9847;DHT22;68671;50.084;8.794;2023-10-08T14:53:30;19.80;99.90
9847;DHT22;68671;50.084;8.794;2023-10-08T14:56:12;19.80;99.90
9847;DHT22;68671;50.084;8.794;2023-10-08T14:58:51;19.80;99.90
9847;DHT22;68671;50.084;8.794;2023-10-08T15:04:45;19.70;99.90
9847;DHT22;68671;50.084;8.794;2023-10-08T15:07:28;19.60;99.90
9847;DHT22;68671;50.084;8.794;2023-10-08T15:10:10;19.60;99.90
9847;DHT22;68671;50.084;8.794;2023-10-08T15:12:54;19.50;99.90
9847;DHT22;68671;50.084;8.794;2023-10-08T15:15:33;19.50;99.90
9847;DHT22;68671;50.084;8.794;2023-10-08T15:18:46;19.40;99.90
9847;DHT22;68671;50.084;8.794;2023-10-08T15:22:01;19.50;99.90
9847;DHT22;68671;50.084;8.794;2023-10-08T15:25:38;19.50;99.90
9847;DHT22;68671;50.084;8.794;2023-10-08T15:31:12;19.70;99.90
9847;DHT22;68671;50.084;8.794;2023-10-08T15:34:06;19.70;99.90
9847;DHT22;68671;50.084;8.794;2023-10-08T15:36:38;19.70;99.90
9847;DHT22;68671;50.084;8.794;2023-10-08T15:39:07;19.70;99.90
9847;DHT22;68671;50.084;8.794;2023-10-08T15:41:37;19.70;99.90
9847;DHT22;68671;50.084;8.794;2023-10-08T15:44:09;19.70;99.90
9847;DHT22;68671;50.084;8.794;2023-10-08T15:46:37;19.70;99.90
9847;DHT22;68671;50.084;8.794;2023-10-08T15:49:04;19.80;99.90
9847;DHT22;68671;50.084;8.794;2023-10-08T15:51:31;19.80;99.90
9847;DHT22;68671;50.084;8.794;2023-10-08T15:54:00;19.70;99.90
9847;DHT22;68671;50.084;8.794;2023-10-08T15:56:32;19.70;99.90
9847;DHT22;68671;50.084;8.794;2023-10-08T15:59:00;19.70;99.90
9847;DHT22;68671;50.084;8.794;2023-10-08T16:01:29;19.60;99.90
9847;DHT22;68671;50.084;8.794;2023-10-08T16:03:56;19.50;99.90
9847;DHT22;68671;50.084;8.794;2023-10-08T16:06:23;19.50;99.90
9847;DHT22;68671;50.084;8.794;2023-10-08T16:08:50;19.50;99.90
9847;DHT22;68671;50.084;8.794;2023-10-08T16:11:22;19.50;99.90
9847;DHT22;68671;50.084;8.794;2023-10-08T16:13:51;19.50;99.90
9847;DHT22;68671;50.084;8.794;2023-10-08T16:16:18;19.50;99.90
9847;DHT22;68671;50.084;8.794;2023-10-08T16:18:45;19.40;99.90
9847;DHT22;68671;50.084;8.794;2023-10-08T16:21:13;19.50;99.90
9847;DHT22;68671;50.084;8.794;2023-10-08T16:23:42;19.40;99.90
9847;DHT22;68671;50.084;8.794;2023-10-08T16:26:09;19.40;99.90